Airfield :
LOGIN :

Register | Disclaimer

   EN    FR    IT 

 










Legend :    VFR   Marginal VFR   IFR   Intensive IFR   Very Intensive IFR
Visi :
Ceiling :
>= 8 km
>= 3000ft
5 to 8 km
1000 to 3000 ft
1500m to 5 km
500 to 1000 ft
800 to 1500m
200 to 500 ft
< 800m
< 200 ft
Symbols :   Thunderstorms  Fog  Heavy snow  Heavy precipitations  Wind > 20 kt
SIGMETs :     Misc.  Thunderstorms  Icing  Turbulence  Mountain Waves  Volcanic Ashes







- Airport Elevation : 226 ft
- IATA code : BEX


EGUB - RAF Benson

CURRENT METAR :
  • 230250Z AUTO 16003KT 9999 // FEW180/// 03/02 Q1034

EXPIRED METARs :
  • 230150Z AUTO 18002KT 9999 // NCD 04/03 Q1035
  • 230050Z AUTO 18002KT 9999 // NCD 02/02 Q1035

Expired Forecast.
ATIS : +44 1491-837766 (x7524)
No reported NOTAMs for that airfield.
2 SIGMETs reported for the London FIR (EGTT) :
 
Severe mountain waves
EGTT SIGMET 02 VALID 230200/230600 EGRR
EGTT LONDON FIR SEV MTW FCST WI N5500 W00530 - N5500 E00101 - N5302 E00134 - N5319 W00150 - N5430 W00530 - N5500 W00530 FL030/250 STNR NC=
Severe turbulence
EGTT SIGMET 01 VALID 230200/230600 EGRR
EGTT LONDON FIR SEV TURB FCST WI N5406 W00156 - N5500 W00403 - N5500 E00500 - N5450 E00451 - N5406 W00156 SFC/FL060 MOV SE 05KT NC=



MET'MAP, your aeronautical weather chart ! - Copyright ORBIFLY December 2007 - Disclaimer

ORBIFLY MET'MAP TEAM :

Programming & Development : Alexandra Zaïnal
Concept & Development : Baudouin d'Aumeries
Co-Development & Prog : Marc-Olivier Méhu
Technical & hardware support : Manuel Goepfert

Contact : metmap@orbifly.com




SOURCES & CREDITS :

   NOAA